»·PEaware :: TPX1021 KSNA-KBFL

TPX1021 :: KSNA-KBFL

FLIGHT INFORMATION

Flight Status: Arrived
Operator: ATP Experience
More flights by this operator :: More flights under this callsign
Pilot: Dave P. (45)
Aircraft: DEHAVILLAND DASH 8 400
(DH8D)
More flights by this aircraft type
Origin: KSNA John Wayne-Orange Co
United States
Destination: KBFL Meadows
United States
More flights between these airports :: More routes between these airports
Route: +HHERO3 OROSZ GMN FASTO2
File this flight plan on PilotEdge
Remarks:
Altitude:
(Current/Filed)
20,000ft
Speed:
(Current/Filed)
320kts
Departed: 28-May-19 07:43 PM
Arrived: 28-May-19 08:22 PM
Distance/Time
Traveled:
121nm/0:39
Distance/Time
To Go:
Arrived

Flight Plot

Page will automatically refresh every two minutes.

Flight plan parsing failed; only flown route is shown


Map Options




Map Legend


Flown Route
Filed Route
Departure Airport
Arrival Airport
Navaid (VOR, NDB)
Fix

Horizontal Profiles

Position Reports

Time Latitude Longitude Heading Altitude Ground
Speed
28-May-19 19:27 33.682690 -117.860424 91 63ft 0kts
28-May-19 19:28 33.682690 -117.860424 91 63ft 0kts
28-May-19 19:29 33.682690 -117.860424 91 63ft 0kts
28-May-19 19:30 33.682690 -117.860424 91 63ft 0kts
28-May-19 19:31 33.682690 -117.860424 91 63ft 0kts
28-May-19 19:32 33.682690 -117.860424 91 63ft 0kts
28-May-19 19:33 33.682690 -117.860424 91 63ft 0kts
28-May-19 19:34 33.682690 -117.860424 91 63ft 0kts
28-May-19 19:35 33.682690 -117.860424 91 63ft 0kts
28-May-19 19:36 33.682690 -117.860424 91 63ft 0kts
28-May-19 19:37 33.682680 -117.860399 110 63ft 1kts
28-May-19 19:38 33.680819 -117.862245 210 63ft 11kts
28-May-19 19:39 33.680637 -117.863112 296 63ft 0kts
28-May-19 19:40 33.680677 -117.863207 297 63ft 3kts
28-May-19 19:41 33.680980 -117.865537 207 63ft 23kts
28-May-19 19:42 33.650773 -117.884870 201 1651ft 153kts
28-May-19 19:43 33.599781 -117.895064 188 3751ft 210kts
28-May-19 19:44 33.546346 -117.928258 223 6240ft 229kts
28-May-19 19:45 33.498517 -117.981382 225 9189ft 240kts
28-May-19 19:46 33.457627 -118.047327 242 11571ft 255kts
28-May-19 19:47 33.421220 -118.122920 245 13582ft 266kts
28-May-19 19:48 33.421747 -118.208567 285 15378ft 262kts
28-May-19 19:49 33.438294 -118.294316 290 16922ft 265kts
28-May-19 19:50 33.471097 -118.373165 302 18296ft 266kts
28-May-19 19:51 33.506188 -118.451339 310 19552ft 263kts
28-May-19 19:52 33.573614 -118.477301 359 19964ft 278kts
28-May-19 19:53 33.654316 -118.470741 6 19967ft 302kts
28-May-19 19:54 33.739538 -118.459112 2 19959ft 315kts
28-May-19 19:55 33.827802 -118.459466 0 19956ft 321kts
28-May-19 19:56 33.917396 -118.459785 0 19959ft 324kts
28-May-19 19:57 34.007379 -118.463802 347 19960ft 327kts
28-May-19 19:58 34.092459 -118.505668 339 19960ft 332kts
28-May-19 19:59 34.177651 -118.549046 339 19955ft 333kts
28-May-19 20:00 34.262712 -118.592410 339 19957ft 333kts
28-May-19 20:01 34.348036 -118.635593 339 19962ft 333kts
28-May-19 20:02 34.432945 -118.677288 339 18636ft 326kts
28-May-19 20:03 34.516158 -118.718413 339 16933ft 322kts
28-May-19 20:04 34.598396 -118.758939 339 15264ft 313kts
28-May-19 20:05 34.675255 -118.797184 339 13699ft 293kts
28-May-19 20:06 34.749746 -118.834224 339 12175ft 290kts
28-May-19 20:07 34.826213 -118.861451 358 11117ft 280kts
28-May-19 20:08 34.898956 -118.861330 359 9171ft 250kts
28-May-19 20:09 34.967296 -118.861199 358 8855ft 251kts
28-May-19 20:10 35.034980 -118.861346 359 7448ft 235kts
28-May-19 20:11 35.098370 -118.860760 359 5259ft 219kts
28-May-19 20:12 35.155679 -118.858848 0 5073ft 201kts
28-May-19 20:13 35.209636 -118.846577 39 5421ft 189kts
28-May-19 20:14 35.261391 -118.853103 318 4667ft 222kts
28-May-19 20:15 35.297966 -118.907721 299 4516ft 202kts
28-May-19 20:16 35.299992 -118.962973 350 3916ft 188kts
28-May-19 20:17 35.345281 -118.977745 346 2709ft 150kts
28-May-19 20:18 35.382071 -119.002966 329 2035ft 161kts
28-May-19 20:19 35.416166 -119.034935 318 1010ft 127kts
28-May-19 20:20 35.439519 -119.063018 315 514ft 79kts
28-May-19 20:21 35.442475 -119.065294 44 514ft 0kts

Navigation Log

Ident Type
Flight plan parsing failed, navigation log unavailable